Time;durP1;ratioP1;P1;durP2;ratioP2;P2;SDS_P1;SDS_P2;PMS_P1;PMS_P2;Temp;Humidity;BMP_temperature;BMP_pressure;BME280_temperature;BME280_humidity;BME280_pressure;Samples;Min_cycle;Max_cycle;Signal;HPM_P1;HPM_P2
2021/01/31 00:02:18;;;;;;;14.87;13.33;;;-1.40;99.90;;;;;;5090358;28;20638;-40
2021/01/31 00:04:46;;;;;;;15.87;13.73;;;-1.40;99.90;;;;;;5089970;28;20221;-41
2021/01/31 00:07:13;;;;;;;16.47;13.23;;;-1.50;99.90;;;;;;5089580;28;20590;-40
2021/01/31 00:09:40;;;;;;;14.03;12.47;;;-1.50;99.90;;;;;;5090294;28;20216;-40
2021/01/31 00:12:07;;;;;;;16.13;12.80;;;-1.50;99.90;;;;;;5089839;28;20208;-42
2021/01/31 00:14:34;;;;;;;15.23;13.63;;;-1.60;99.90;;;;;;5089881;28;20576;-41
2021/01/31 00:17:02;;;;;;;16.07;13.53;;;-1.60;99.90;;;;;;5089755;28;20235;-40
2021/01/31 00:19:29;;;;;;;16.67;14.30;;;-1.60;99.90;;;;;;5090374;28;20279;-40
2021/01/31 00:21:57;;;;;;;14.47;12.67;;;-1.60;99.90;;;;;;5090038;28;20568;-40
2021/01/31 00:24:24;;;;;;;17.47;14.67;;;-1.60;99.90;;;;;;5088480;28;20227;-39
2021/01/31 00:26:50;;;;;;;17.57;15.50;;;-1.70;99.90;;;;;;5089534;28;20267;-40
2021/01/31 00:29:19;;;;;;;16.07;14.37;;;-1.70;99.90;;;;;;5090189;28;20621;-40
2021/01/31 00:31:47;;;;;;;17.40;14.93;;;-1.70;99.90;;;;;;5092280;28;20303;-40
2021/01/31 00:34:14;;;;;;;17.90;15.07;;;-1.70;99.90;;;;;;5093700;28;20216;-40
2021/01/31 00:36:43;;;;;;;19.20;15.80;;;-1.80;99.90;;;;;;5093282;28;20301;-40
2021/01/31 00:39:10;;;;;;;20.03;16.67;;;-1.70;99.90;;;;;;5093589;28;20198;-41
2021/01/31 00:41:38;;;;;;;19.20;16.23;;;-1.70;99.90;;;;;;5092299;28;20216;-41
2021/01/31 00:44:07;;;;;;;18.27;15.90;;;-1.80;99.90;;;;;;5073423;28;20203;-40
2021/01/31 00:46:36;;;;;;;20.87;16.20;;;-1.80;99.90;;;;;;5072996;28;20225;-40
2021/01/31 00:49:03;;;;;;;16.97;15.17;;;-1.90;99.90;;;;;;5090314;28;20625;-42
2021/01/31 00:51:30;;;;;;;18.23;15.53;;;-1.90;99.90;;;;;;5093457;28;20285;-40
2021/01/31 00:53:58;;;;;;;17.57;15.60;;;-1.90;99.90;;;;;;5093571;28;20216;-41
2021/01/31 00:56:25;;;;;;;18.77;15.33;;;-1.90;99.90;;;;;;5091702;28;20284;-40
2021/01/31 00:58:52;;;;;;;16.83;14.03;;;-2.00;99.90;;;;;;5092273;28;20196;-42
2021/01/31 01:01:20;;;;;;;18.93;15.43;;;-2.00;99.90;;;;;;5092107;28;20241;-40
2021/01/31 01:03:47;;;;;;;17.27;14.47;;;-2.00;99.90;;;;;;5092930;28;20695;-40
2021/01/31 01:06:26;;;;;;;17.17;14.37;;;-2.00;99.90;;;;;;5092207;28;20296;-42
2021/01/31 01:08:53;;;;;;;18.20;14.73;;;-2.00;99.90;;;;;;5093045;28;20214;-41
2021/01/31 01:11:21;;;;;;;17.63;15.10;;;-2.00;99.90;;;;;;5092037;28;20196;-40
2021/01/31 01:13:47;;;;;;;17.10;14.40;;;-2.00;99.90;;;;;;5092759;28;20206;-40
2021/01/31 01:16:14;;;;;;;15.93;14.27;;;-2.10;99.90;;;;;;5092625;28;20297;-40
2021/01/31 01:18:41;;;;;;;18.43;15.03;;;-2.10;99.90;;;;;;5092688;28;20276;-40
2021/01/31 01:21:08;;;;;;;17.73;14.57;;;-2.10;99.90;;;;;;5092938;28;20208;-40
2021/01/31 01:23:34;;;;;;;15.43;13.83;;;-2.20;99.90;;;;;;5092701;28;20202;-40
2021/01/31 01:26:01;;;;;;;16.27;13.83;;;-2.20;99.90;;;;;;5092798;28;20790;-40
2021/01/31 01:28:29;;;;;;;18.17;14.37;;;-2.20;99.90;;;;;;5092727;28;20668;-41
2021/01/31 01:30:56;;;;;;;14.50;12.60;;;-2.30;99.90;;;;;;5092785;28;20200;-40
2021/01/31 01:33:22;;;;;;;16.33;14.60;;;-2.30;99.90;;;;;;5092396;28;20206;-40
2021/01/31 01:35:49;;;;;;;18.20;14.50;;;-2.30;99.90;;;;;;5092417;28;20617;-40
2021/01/31 01:38:16;;;;;;;18.50;15.60;;;-2.30;99.90;;;;;;5092882;28;20276;-40
2021/01/31 01:40:43;;;;;;;15.63;12.77;;;-2.30;99.90;;;;;;5091928;28;20652;-40
2021/01/31 01:43:15;;;;;;;14.97;13.40;;;-2.30;99.90;;;;;;5093064;28;20208;-40
2021/01/31 01:45:43;;;;;;;15.17;13.20;;;-2.40;99.90;;;;;;5092429;28;20603;-40
2021/01/31 01:48:15;;;;;;;15.03;13.50;;;-2.60;99.90;;;;;;5093101;28;20240;-40
2021/01/31 01:50:47;;;;;;;15.03;13.43;;;-2.40;99.90;;;;;;5093271;28;20246;-41
2021/01/31 01:53:16;;;;;;;17.37;14.03;;;-2.40;99.90;;;;;;5093105;28;20292;-40
2021/01/31 01:55:52;;;;;;;16.80;14.43;;;-2.40;99.90;;;;;;5092410;28;20221;-40
2021/01/31 01:58:20;;;;;;;15.73;13.87;;;-2.40;99.90;;;;;;5092399;28;20204;-41
2021/01/31 02:00:48;;;;;;;18.23;13.63;;;-2.40;99.90;;;;;;5092780;28;20276;-40
2021/01/31 02:03:20;;;;;;;17.70;15.83;;;-2.40;99.90;;;;;;5083523;28;20230;-40
2021/01/31 02:05:52;;;;;;;19.50;15.13;;;-2.40;99.90;;;;;;5070865;28;20260;-40
2021/01/31 02:08:19;;;;;;;17.20;14.77;;;-2.50;99.90;;;;;;5071619;28;20201;-40
2021/01/31 02:10:45;;;;;;;17.03;14.53;;;-2.50;99.90;;;;;;5070453;28;20194;-40
2021/01/31 02:13:12;;;;;;;16.00;14.00;;;-2.50;99.90;;;;;;5071753;28;20284;-40
2021/01/31 02:15:39;;;;;;;20.83;15.90;;;-2.50;99.90;;;;;;5071151;28;20732;-39
2021/01/31 02:18:13;;;;;;;18.50;15.67;;;-2.50;99.90;;;;;;5071356;28;20202;-40
2021/01/31 02:21:16;;;;;;;19.97;15.47;;;-2.50;99.90;;;;;;5071534;28;20577;-39
2021/01/31 02:24:26;;;;;;;19.97;14.10;;;-2.50;99.90;;;;;;5048004;28;20242;-40
2021/01/31 02:27:37;;;;;;;16.97;15.07;;;-2.60;99.90;;;;;;5071100;28;20223;-39
2021/01/31 02:30:27;;;;;;;17.90;14.43;;;-2.60;99.90;;;;;;5071641;28;20206;-39
2021/01/31 02:33:28;;;;;;;23.27;16.93;;;-2.60;99.90;;;;;;5071303;28;20295;-40
2021/01/31 02:36:03;;;;;;;19.07;16.40;;;-2.70;99.90;;;;;;5124278;22;20723;-39
2021/01/31 02:38:35;;;;;;;19.77;16.10;;;-2.70;99.90;;;;;;5051438;28;20673;-39
2021/01/31 02:41:07;;;;;;;19.00;15.90;;;-2.70;99.90;;;;;;5051323;28;20206;-39
2021/01/31 02:43:38;;;;;;;18.80;16.23;;;-2.70;99.90;;;;;;5051277;28;20272;-39
2021/01/31 02:46:13;;;;;;;16.83;15.03;;;-2.60;99.90;;;;;;5050667;28;20317;-39
2021/01/31 02:48:45;;;;;;;18.23;14.13;;;-2.60;99.90;;;;;;5064919;28;20211;-41
2021/01/31 02:51:16;;;;;;;19.37;16.43;;;-2.70;99.90;;;;;;5071306;28;20198;-39
2021/01/31 02:53:52;;;;;;;20.23;16.23;;;-2.60;99.90;;;;;;5070431;28;20201;-41
2021/01/31 02:56:25;;;;;;;18.57;15.93;;;-2.70;99.90;;;;;;5070738;28;20232;-38
2021/01/31 02:59:01;;;;;;;20.20;14.90;;;-2.70;99.90;;;;;;5070675;28;20289;-40
2021/01/31 03:01:35;;;;;;;18.57;15.07;;;-2.80;99.90;;;;;;5045396;28;20242;-39
2021/01/31 03:04:07;;;;;;;18.23;15.27;;;-2.90;99.90;;;;;;5051089;28;20226;-41
2021/01/31 03:06:39;;;;;;;18.43;15.87;;;-2.90;99.90;;;;;;5050459;28;20239;-40
2021/01/31 03:09:12;;;;;;;17.43;15.57;;;-2.90;99.90;;;;;;5050667;28;20248;-39
2021/01/31 03:11:43;;;;;;;17.20;14.73;;;-2.90;99.90;;;;;;5050766;28;20199;-40
2021/01/31 03:14:14;;;;;;;17.57;15.43;;;-2.90;99.90;;;;;;5050620;28;20256;-39
2021/01/31 03:16:48;;;;;;;18.83;16.17;;;-2.90;99.90;;;;;;5050234;28;20309;-39
2021/01/31 03:19:23;;;;;;;20.17;16.67;;;-2.90;99.90;;;;;;5050046;28;20194;-39
2021/01/31 03:21:54;;;;;;;17.93;15.57;;;-2.90;99.90;;;;;;5050490;28;20202;-39
2021/01/31 03:24:30;;;;;;;20.23;17.17;;;-2.90;99.90;;;;;;5049953;28;20245;-40
2021/01/31 03:27:02;;;;;;;21.10;17.27;;;-2.90;99.90;;;;;;5049890;28;20222;-39
2021/01/31 03:29:29;;;;;;;19.03;16.03;;;-2.90;99.90;;;;;;5050126;28;20209;-39
2021/01/31 03:31:59;;;;;;;21.13;18.00;;;-3.00;99.90;;;;;;5050287;28;20242;-40
2021/01/31 03:34:33;;;;;;;21.53;15.90;;;-3.00;99.90;;;;;;5050023;28;20233;-41
2021/01/31 03:37:04;;;;;;;19.47;14.97;;;-3.10;99.90;;;;;;5050993;28;20222;-39
2021/01/31 03:39:34;;;;;;;18.97;15.70;;;-3.20;99.90;;;;;;5050990;28;20571;-40
2021/01/31 03:42:00;;;;;;;18.37;16.00;;;-3.30;99.90;;;;;;5050541;28;20202;-40
2021/01/31 03:44:30;;;;;;;20.93;17.37;;;-3.30;99.90;;;;;;5049566;28;20584;-39
2021/01/31 03:47:02;;;;;;;20.00;15.90;;;-3.40;99.90;;;;;;5045445;28;20642;-39
2021/01/31 03:49:35;;;;;;;17.53;15.60;;;-3.40;99.90;;;;;;5037701;28;20202;-39
2021/01/31 03:52:03;;;;;;;23.23;17.60;;;-3.30;99.90;;;;;;5050173;28;20202;-40
2021/01/31 03:54:30;;;;;;;19.43;16.93;;;-3.30;99.90;;;;;;5049975;28;20206;-39
2021/01/31 03:57:02;;;;;;;20.03;15.63;;;-3.30;99.90;;;;;;5047920;28;20741;-39
2021/01/31 03:59:34;;;;;;;20.27;16.70;;;-3.30;99.90;;;;;;5062483;28;20194;-38
2021/01/31 04:02:03;;;;;;;19.97;14.80;;;-3.30;99.90;;;;;;5049907;28;20683;-39
2021/01/31 04:04:35;;;;;;;24.53;19.10;;;-3.30;99.90;;;;;;5048360;28;20217;-39
2021/01/31 04:07:05;;;;;;;22.73;17.80;;;-3.20;99.90;;;;;;5036473;28;20219;-39
2021/01/31 04:09:34;;;;;;;20.70;17.00;;;-3.20;99.90;;;;;;5054015;28;20194;-39
2021/01/31 04:12:03;;;;;;;23.10;18.43;;;-3.20;99.90;;;;;;5053673;28;20576;-40
2021/01/31 04:14:36;;;;;;;21.57;17.13;;;-3.20;99.90;;;;;;5066276;28;20499;-39
2021/01/31 04:17:03;;;;;;;21.20;17.13;;;-3.20;99.90;;;;;;5037335;28;20269;-40
2021/01/31 04:19:30;;;;;;;20.80;17.17;;;-3.20;99.90;;;;;;5052539;28;20274;-39
2021/01/31 04:21:57;;;;;;;22.50;17.73;;;-3.20;99.90;;;;;;5053701;28;20225;-38
2021/01/31 04:24:25;;;;;;;21.53;18.40;;;-3.20;99.90;;;;;;5053446;28;20202;-41
2021/01/31 04:26:51;;;;;;;22.00;17.73;;;-3.20;99.90;;;;;;5053074;28;20693;-39
2021/01/31 04:29:18;;;;;;;22.17;18.27;;;-3.30;99.90;;;;;;5053869;28;20282;-38
2021/01/31 04:31:45;;;;;;;25.27;20.33;;;-3.30;99.90;;;;;;5053489;28;20289;-40
2021/01/31 04:34:12;;;;;;;22.87;19.40;;;-3.40;99.90;;;;;;5053498;28;20211;-38
2021/01/31 04:36:40;;;;;;;19.77;17.00;;;-3.40;99.90;;;;;;5053222;28;20218;-41
2021/01/31 04:39:07;;;;;;;27.10;17.50;;;-3.40;99.90;;;;;;5053647;28;20202;-39
2021/01/31 04:41:40;;;;;;;18.63;15.87;;;-3.40;99.90;;;;;;5053509;28;20268;-40
2021/01/31 04:44:11;;;;;;;21.17;17.73;;;-3.40;99.90;;;;;;5053464;28;20215;-39
2021/01/31 04:46:43;;;;;;;22.00;18.07;;;-3.30;99.90;;;;;;5053048;28;20611;-39
2021/01/31 04:49:39;;;;;;;22.57;18.80;;;-3.40;99.90;;;;;;5052967;28;20266;-40
2021/01/31 04:52:20;;;;;;;23.10;18.77;;;-3.20;99.90;;;;;;5032784;28;20211;-40
2021/01/31 04:55:05;;;;;;;23.90;20.10;;;-3.20;99.90;;;;;;5033697;28;20228;-38
2021/01/31 04:57:38;;;;;;;20.27;16.10;;;-3.30;99.90;;;;;;5049380;28;20214;-39
2021/01/31 05:00:09;;;;;;;21.47;17.60;;;-3.40;99.90;;;;;;5051783;28;20199;-38
2021/01/31 05:02:41;;;;;;;23.20;18.23;;;-3.40;99.90;;;;;;5053383;28;20196;-39
2021/01/31 05:05:18;;;;;;;21.57;17.40;;;-3.50;99.90;;;;;;5036398;28;20297;-41
2021/01/31 05:07:52;;;;;;;20.80;17.60;;;-3.50;99.90;;;;;;5052968;28;20202;-39
2021/01/31 05:10:19;;;;;;;22.77;17.53;;;-3.50;99.90;;;;;;5052812;28;20618;-39
2021/01/31 05:12:55;;;;;;;21.27;17.00;;;-3.40;99.90;;;;;;5052768;28;20196;-40
2021/01/31 05:15:26;;;;;;;22.07;17.70;;;-3.60;99.90;;;;;;5052333;28;20194;-40
2021/01/31 05:17:55;;;;;;;23.47;19.90;;;-3.50;99.90;;;;;;5052467;28;20579;-39
2021/01/31 05:20:25;;;;;;;21.50;17.17;;;-3.50;99.90;;;;;;5052750;28;20312;-39
2021/01/31 05:22:55;;;;;;;21.17;16.47;;;-3.50;99.90;;;;;;5052711;28;20199;-39
2021/01/31 05:25:25;;;;;;;21.20;17.57;;;-3.50;99.90;;;;;;5052071;28;20571;-39
2021/01/31 05:27:55;;;;;;;21.47;16.57;;;-3.60;99.90;;;;;;5052678;28;20317;-39
2021/01/31 05:30:23;;;;;;;21.77;16.87;;;-3.60;99.90;;;;;;5052770;28;20194;-39
2021/01/31 05:33:09;;;;;;;25.33;17.57;;;-3.60;99.90;;;;;;5052707;28;20678;-39
2021/01/31 05:35:41;;;;;;;24.57;18.30;;;-3.60;99.90;;;;;;5052070;28;20598;-39
2021/01/31 05:38:10;;;;;;;20.10;16.53;;;-3.60;99.90;;;;;;5052577;28;20210;-39
2021/01/31 05:40:40;;;;;;;22.13;16.90;;;-3.60;99.90;;;;;;5052612;28;20377;-40
2021/01/31 05:43:13;;;;;;;22.47;17.43;;;-3.80;99.90;;;;;;5052614;28;20249;-40
2021/01/31 05:45:42;;;;;;;27.33;19.23;;;-4.00;99.90;;;;;;5052088;28;20665;-38
2021/01/31 05:48:19;;;;;;;22.93;18.70;;;-4.00;99.90;;;;;;5052462;28;20217;-37
2021/01/31 05:50:46;;;;;;;24.50;18.20;;;-4.00;99.90;;;;;;5051980;28;20199;-37
2021/01/31 05:53:27;;;;;;;23.43;18.00;;;-4.10;99.90;;;;;;5050856;28;20199;-37
2021/01/31 05:56:14;;;;;;;22.80;16.70;;;-4.10;99.90;;;;;;5051842;28;20635;-38
2021/01/31 05:58:41;;;;;;;20.80;16.83;;;-4.20;99.90;;;;;;5052178;28;20201;-37
2021/01/31 06:01:09;;;;;;;20.10;16.13;;;-4.20;99.90;;;;;;5052177;28;20203;-37
2021/01/31 06:03:36;;;;;;;22.37;18.40;;;-4.10;99.90;;;;;;5051853;28;20207;-37
2021/01/31 06:06:12;;;;;;;25.80;17.67;;;-4.10;99.90;;;;;;5051554;28;20310;-37
2021/01/31 06:08:43;;;;;;;21.43;17.50;;;-4.10;99.90;;;;;;5051935;28;20213;-37
2021/01/31 06:11:21;;;;;;;19.67;16.20;;;-4.10;99.90;;;;;;5051857;28;20191;-37
2021/01/31 06:14:00;;;;;;;20.73;16.37;;;-4.10;99.90;;;;;;5051623;28;20212;-37
2021/01/31 06:16:28;;;;;;;21.87;17.90;;;-4.10;99.90;;;;;;5051433;28;20242;-37
2021/01/31 06:19:00;;;;;;;22.80;17.23;;;-4.10;99.90;;;;;;5051590;28;20207;-37
2021/01/31 06:21:40;;;;;;;23.30;16.67;;;-4.10;99.90;;;;;;5051720;28;20195;-37
2021/01/31 06:24:23;;;;;;;19.30;16.03;;;-4.10;99.90;;;;;;5051650;28;20210;-36
2021/01/31 06:26:51;;;;;;;21.80;17.93;;;-4.20;99.90;;;;;;5049783;28;20279;-36
2021/01/31 06:29:30;;;;;;;24.87;18.13;;;-4.20;99.90;;;;;;5050939;28;20218;-36
2021/01/31 06:32:02;;;;;;;21.40;16.77;;;-4.20;99.90;;;;;;5051864;28;20234;-36
2021/01/31 06:34:29;;;;;;;22.27;16.70;;;-4.20;99.90;;;;;;5051209;28;20210;-36
2021/01/31 06:37:21;;;;;;;25.20;16.97;;;-4.20;99.90;;;;;;5051268;28;20233;-36
2021/01/31 06:39:58;;;;;;;24.07;18.87;;;-4.20;99.90;;;;;;5051314;28;20713;-36
2021/01/31 06:42:36;;;;;;;21.70;17.50;;;-4.20;99.90;;;;;;5051113;28;20236;-36
2021/01/31 06:45:21;;;;;;;21.40;17.83;;;-4.20;99.90;;;;;;5050956;28;20720;-36
2021/01/31 06:48:08;;;;;;;24.30;18.40;;;-4.20;99.90;;;;;;5049895;28;20666;-37
2021/01/31 06:50:47;;;;;;;20.03;16.93;;;-4.20;99.90;;;;;;5050728;28;20190;-36
2021/01/31 06:53:27;;;;;;;21.53;17.30;;;-4.20;99.90;;;;;;5050951;28;20205;-36
2021/01/31 06:56:19;;;;;;;23.23;16.73;;;-4.30;99.90;;;;;;5050812;28;20218;-36
2021/01/31 06:59:07;;;;;;;19.20;16.30;;;-4.30;99.90;;;;;;5050775;28;20199;-38
2021/01/31 07:01:49;;;;;;;20.77;16.43;;;-4.30;99.90;;;;;;5051980;28;20283;-36
2021/01/31 07:05:04;;;;;;;23.47;17.30;;;-4.30;99.90;;;;;;5050624;28;20199;-36
2021/01/31 07:08:08;;;;;;;22.17;16.63;;;-4.20;99.90;;;;;;5035654;28;20245;-36
2021/01/31 07:11:03;;;;;;;22.23;17.10;;;-4.20;99.90;;;;;;5050779;28;20604;-36
2021/01/31 07:13:47;;;;;;;28.17;19.47;;;-4.20;99.90;;;;;;5048424;28;20252;-37
2021/01/31 07:16:28;;;;;;;22.33;18.07;;;-4.20;99.90;;;;;;5050504;28;20294;-37
2021/01/31 07:19:00;;;;;;;23.53;17.17;;;-4.20;99.90;;;;;;5050684;28;20225;-37
2021/01/31 07:21:33;;;;;;;24.77;19.07;;;-4.30;99.90;;;;;;5050630;28;20199;-37
2021/01/31 07:24:04;;;;;;;24.87;18.33;;;-4.30;99.90;;;;;;5050505;28;20677;-37
2021/01/31 07:26:38;;;;;;;21.67;16.73;;;-4.30;99.90;;;;;;5050772;28;20602;-37
2021/01/31 07:29:15;;;;;;;22.97;17.90;;;-4.30;99.90;;;;;;5050891;28;20198;-37
2021/01/31 07:31:46;;;;;;;24.53;18.67;;;-4.20;99.90;;;;;;5050465;28;20209;-37
2021/01/31 07:34:18;;;;;;;19.93;16.03;;;-4.20;99.90;;;;;;5049948;28;20222;-37
2021/01/31 07:37:11;;;;;;;24.03;17.13;;;-4.10;99.90;;;;;;5050375;28;20288;-38
2021/01/31 07:39:48;;;;;;;20.30;15.53;;;-3.80;99.90;;;;;;5048047;28;20214;-39
2021/01/31 07:42:35;;;;;;;24.63;16.80;;;-3.70;99.90;;;;;;5050166;28;20654;-37
2021/01/31 07:45:10;;;;;;;20.87;16.20;;;-3.70;99.90;;;;;;5048898;28;20309;-37
2021/01/31 07:47:36;;;;;;;20.70;15.37;;;-3.80;99.90;;;;;;5050141;28;20286;-37
2021/01/31 07:50:38;;;;;;;22.80;15.97;;;-3.80;99.90;;;;;;5048872;28;20199;-37
2021/01/31 07:53:06;;;;;;;23.20;17.13;;;-3.80;99.90;;;;;;4988279;28;20203;-37
2021/01/31 07:55:36;;;;;;;18.60;15.53;;;-3.90;99.90;;;;;;5037498;28;20736;-37
2021/01/31 07:58:29;;;;;;;24.37;17.13;;;-3.90;99.90;;;;;;5050006;28;20202;-37
2021/01/31 08:00:58;;;;;;;25.07;17.33;;;-3.90;99.90;;;;;;5050086;28;20242;-37
2021/01/31 08:03:31;;;;;;;20.57;17.03;;;-3.80;99.90;;;;;;5049812;28;20266;-37
2021/01/31 08:06:05;;;;;;;19.10;15.93;;;-3.80;99.90;;;;;;5049556;28;20327;-38
2021/01/31 08:08:48;;;;;;;21.80;17.60;;;-3.70;99.90;;;;;;5049365;28;20575;-37
2021/01/31 08:11:53;;;;;;;22.57;17.80;;;-3.60;99.90;;;;;;5049731;28;20289;-38
2021/01/31 08:14:58;;;;;;;22.13;15.87;;;-3.60;99.90;;;;;;5005876;28;20203;-37
2021/01/31 08:17:42;;;;;;;25.70;18.47;;;-3.60;99.90;;;;;;5050120;28;20644;-37
2021/01/31 08:20:48;;;;;;;22.90;15.83;;;-3.60;99.90;;;;;;5066583;28;20680;-37
2021/01/31 08:23:54;;;;;;;27.03;18.83;;;-3.60;99.90;;;;;;5052471;28;20197;-37
2021/01/31 08:26:45;;;;;;;55.33;35.60;;;-3.50;99.90;;;;;;5069728;28;20857;-37
2021/01/31 08:29:28;;;;;;;31.13;22.60;;;-3.40;99.90;;;;;;5070136;28;20267;-36
2021/01/31 08:32:08;;;;;;;23.67;18.70;;;-3.30;99.90;;;;;;5056528;28;20563;-37
2021/01/31 08:35:18;;;;;;;21.10;16.47;;;-3.30;99.90;;;;;;5049567;28;20689;-37
2021/01/31 08:37:48;;;;;;;20.03;16.37;;;-3.30;99.90;;;;;;5049751;28;20202;-37
2021/01/31 08:40:24;;;;;;;24.17;16.93;;;-3.20;99.90;;;;;;5049752;28;20203;-37
2021/01/31 08:42:55;;;;;;;23.03;17.60;;;-3.10;99.90;;;;;;5049515;28;20221;-38
2021/01/31 08:45:38;;;;;;;24.90;19.53;;;-3.00;99.90;;;;;;5049368;28;20256;-37
2021/01/31 08:48:05;;;;;;;21.00;16.87;;;-3.00;99.90;;;;;;5049774;28;20231;-40
2021/01/31 08:50:32;;;;;;;26.53;20.07;;;-2.90;99.90;;;;;;5049788;28;20198;-39
2021/01/31 08:53:04;;;;;;;26.07;18.47;;;-2.80;99.90;;;;;;5052189;28;20328;-40
2021/01/31 08:55:31;;;;;;;27.03;19.57;;;-2.80;99.90;;;;;;5052379;28;20629;-41
2021/01/31 08:58:02;;;;;;;22.43;18.27;;;-2.70;99.90;;;;;;5051976;28;20578;-41
2021/01/31 09:00:31;;;;;;;23.17;17.13;;;-2.60;99.90;;;;;;5053208;28;20293;-40
2021/01/31 09:02:59;;;;;;;22.83;17.00;;;-2.30;99.90;;;;;;5053641;28;20203;-40
2021/01/31 09:05:26;;;;;;;18.73;14.03;;;-1.00;99.90;;;;;;5052779;28;20225;-40
2021/01/31 09:08:02;;;;;;;18.73;15.40;;;0.40;99.90;;;;;;5051091;28;20206;-40
2021/01/31 09:10:40;;;;;;;16.50;13.67;;;1.50;99.90;;;;;;5033245;28;20210;-39
2021/01/31 09:13:17;;;;;;;19.57;15.23;;;2.10;99.90;;;;;;5052062;28;20232;-40
2021/01/31 09:15:44;;;;;;;15.83;13.40;;;1.70;99.90;;;;;;5063460;28;20216;-40
2021/01/31 09:18:19;;;;;;;17.63;14.07;;;0.50;99.90;;;;;;5072788;28;20702;-39
2021/01/31 09:20:46;;;;;;;17.43;13.70;;;-0.20;99.90;;;;;;5054022;28;20601;-39
2021/01/31 09:23:19;;;;;;;17.10;13.73;;;-0.60;99.90;;;;;;5052953;28;20288;-39
2021/01/31 09:25:47;;;;;;;17.40;13.70;;;-0.80;99.90;;;;;;5052897;28;20312;-39
2021/01/31 09:28:20;;;;;;;15.70;12.60;;;-1.10;99.90;;;;;;5048445;28;20193;-39
2021/01/31 09:30:48;;;;;;;18.93;14.20;;;-1.30;99.90;;;;;;5050906;28;20260;-39
2021/01/31 09:33:33;;;;;;;20.30;13.43;;;-1.40;99.90;;;;;;5051504;28;20261;-39
2021/01/31 09:36:16;;;;;;;18.63;13.63;;;-1.50;99.90;;;;;;5055385;28;20234;-41
2021/01/31 09:38:42;;;;;;;18.30;14.37;;;-1.40;99.90;;;;;;5050177;28;20203;-39
2021/01/31 09:41:10;;;;;;;20.30;14.83;;;-1.40;99.90;;;;;;5051949;28;20228;-40
2021/01/31 09:43:38;;;;;;;16.50;13.23;;;-1.40;99.90;;;;;;5062099;28;20654;-39
2021/01/31 09:46:10;;;;;;;17.87;13.07;;;-1.30;99.90;;;;;;5057338;28;20267;-39
2021/01/31 09:48:37;;;;;;;18.57;14.73;;;-1.20;99.90;;;;;;5051599;28;20650;-39
2021/01/31 09:51:06;;;;;;;15.90;13.33;;;-1.10;99.90;;;;;;5049936;28;20199;-39
2021/01/31 09:53:36;;;;;;;15.73;12.60;;;-0.80;99.90;;;;;;5050564;28;20199;-38
2021/01/31 09:56:07;;;;;;;15.10;12.47;;;-0.80;99.90;;;;;;5050668;28;20219;-39
2021/01/31 09:58:41;;;;;;;17.77;13.67;;;-0.90;99.90;;;;;;5051498;28;20198;-38
2021/01/31 10:01:12;;;;;;;14.97;12.40;;;-1.00;99.90;;;;;;5051066;28;20203;-38
2021/01/31 10:03:39;;;;;;;14.90;13.13;;;-1.10;99.90;;;;;;5050808;28;20203;-39
2021/01/31 10:06:10;;;;;;;14.37;11.50;;;-1.00;99.90;;;;;;5047966;28;20230;-39
2021/01/31 10:08:40;;;;;;;16.93;13.53;;;-0.90;99.90;;;;;;5050825;28;20567;-39
2021/01/31 10:11:30;;;;;;;12.97;11.53;;;-0.80;99.90;;;;;;5051120;28;20199;-40
2021/01/31 10:13:58;;;;;;;14.30;11.97;;;-0.50;99.90;;;;;;5050243;28;20229;-39
2021/01/31 10:16:29;;;;;;;17.00;12.00;;;-0.40;99.90;;;;;;5050329;28;20280;-39
2021/01/31 10:19:16;;;;;;;11.27;10.07;;;0.60;99.90;;;;;;5050749;28;20203;-41
2021/01/31 10:21:50;;;;;;;9.60;8.60;;;2.80;99.90;;;;;;5050993;28;20194;-40
2021/01/31 10:24:26;;;;;;;11.53;9.47;;;4.40;99.90;;;;;;5055761;28;20209;-39
2021/01/31 10:27:19;;;;;;;8.53;7.63;;;3.80;99.90;;;;;;5056632;28;20229;-40
2021/01/31 10:29:47;;;;;;;7.97;7.17;;;4.50;99.90;;;;;;5072058;22;20234;-79
2021/01/31 10:32:27;;;;;;;9.70;8.80;;;5.40;99.90;;;;;;5063834;28;20562;-80
2021/01/31 10:34:56;;;;;;;9.23;7.80;;;7.10;99.90;;;;;;5055517;28;20210;-82
2021/01/31 10:37:33;;;;;;;8.30;7.50;;;7.70;99.90;;;;;;5057561;28;20198;-81
2021/01/31 10:40:00;;;;;;;7.30;6.60;;;7.50;99.90;;;;;;5068239;28;20359;-80
2021/01/31 10:42:27;;;;;;;7.87;7.17;;;7.80;99.90;;;;;;5061622;28;20211;-79
2021/01/31 10:45:07;;;;;;;8.27;7.43;;;7.80;99.90;;;;;;5078204;22;20701;-82
2021/01/31 10:47:34;;;;;;;8.87;7.97;;;8.20;99.90;;;;;;5057840;28;20203;-83
2021/01/31 10:50:01;;;;;;;8.20;7.40;;;8.00;99.90;;;;;;5065595;28;20265;-84
2021/01/31 10:52:29;;;;;;;7.75;7.05;;;9.00;99.90;;;;;;5057840;28;20199;-84
2021/01/31 10:54:58;;;;;;;7.65;6.95;;;9.10;99.90;;;;;;5085864;28;20215;-83
2021/01/31 10:57:25;;;;;;;7.72;7.00;;;9.50;99.90;;;;;;5084865;28;20213;-83
2021/01/31 10:59:52;;;;;;;7.25;6.57;;;9.90;99.90;;;;;;5067734;28;20203;-83
2021/01/31 11:02:20;;;;;;;15.82;14.02;;;10.40;99.90;;;;;;5050474;28;20798;-83
2021/01/31 11:04:50;;;;;;;8.88;7.90;;;10.60;99.90;;;;;;5063700;28;20284;-82
2021/01/31 11:07:19;;;;;;;7.57;6.90;;;10.60;99.90;;;;;;5036523;28;20224;-83
2021/01/31 11:09:48;;;;;;;7.53;6.90;;;11.10;99.90;;;;;;5062511;28;20229;-83
2021/01/31 11:12:15;;;;;;;7.20;6.60;;;11.60;99.90;;;;;;5084457;28;20209;-83
2021/01/31 11:14:44;;;;;;;7.80;6.90;;;11.40;99.90;;;;;;5069620;28;20521;-83
2021/01/31 11:17:11;;;;;;;7.47;6.78;;;11.70;99.90;;;;;;5067247;28;20202;-83
2021/01/31 11:19:48;;;;;;;7.68;7.07;;;11.20;99.90;;;;;;5047640;28;20202;-83
2021/01/31 11:22:15;;;;;;;5.82;5.35;;;11.00;99.90;;;;;;5067942;28;20214;-84
2021/01/31 11:24:44;;;;;;;7.13;6.18;;;11.10;99.90;;;;;;5082679;28;20221;-83
2021/01/31 11:27:11;;;;;;;6.55;6.05;;;10.80;99.90;;;;;;5050145;28;20244;-83
2021/01/31 11:29:38;;;;;;;7.65;6.95;;;9.60;99.90;;;;;;5084676;28;20209;-83
2021/01/31 11:32:05;;;;;;;7.95;7.22;;;9.00;99.90;;;;;;5064222;28;20204;-83
2021/01/31 11:34:33;;;;;;;10.65;9.75;;;9.70;99.90;;;;;;5055910;28;20593;-80
2021/01/31 11:37:00;;;;;;;8.40;7.60;;;10.40;99.90;;;;;;5064666;28;20310;-83
2021/01/31 11:39:39;;;;;;;12.02;7.57;;;10.30;99.90;;;;;;5049776;28;20291;-83
2021/01/31 11:42:06;;;;;;;9.10;8.20;;;9.10;99.90;;;;;;5041338;28;20292;-83
2021/01/31 11:44:32;;;;;;;7.82;7.13;;;9.50;99.90;;;;;;5044110;28;20231;-81
2021/01/31 11:46:59;;;;;;;10.00;9.10;;;9.80;99.90;;;;;;5047148;28;20281;-81
2021/01/31 11:49:26;;;;;;;9.63;8.73;;;9.80;99.90;;;;;;5045975;28;20234;-81
2021/01/31 11:51:55;;;;;;;9.80;8.90;;;9.50;99.90;;;;;;5071055;28;20203;-81
2021/01/31 11:54:25;;;;;;;10.35;8.45;;;8.90;99.90;;;;;;5060597;28;20764;-81
2021/01/31 11:56:53;;;;;;;8.93;8.02;;;8.40;99.90;;;;;;5081871;28;20190;-81
2021/01/31 11:59:20;;;;;;;8.23;7.43;;;7.80;99.90;;;;;;5074273;28;20191;-82
2021/01/31 12:01:47;;;;;;;9.50;8.30;;;7.40;99.90;;;;;;5048416;28;20680;-81
2021/01/31 12:04:13;;;;;;;10.15;7.35;;;6.90;99.90;;;;;;5079626;28;20708;-82
2021/01/31 12:06:42;;;;;;;8.10;7.33;;;6.70;99.90;;;;;;5065471;28;20215;-80
2021/01/31 12:09:08;;;;;;;8.50;7.70;;;6.30;99.90;;;;;;5066118;28;20213;-82
2021/01/31 12:11:36;;;;;;;8.57;7.77;;;6.20;99.90;;;;;;5065309;28;20221;-82
2021/01/31 12:14:04;;;;;;;8.67;7.83;;;6.10;99.90;;;;;;5047972;28;20223;-82
2021/01/31 12:16:30;;;;;;;8.20;7.40;;;6.40;99.90;;;;;;5047263;28;20191;-82
2021/01/31 12:18:58;;;;;;;8.18;7.38;;;6.40;99.90;;;;;;5067150;28;20190;-80
2021/01/31 12:21:25;;;;;;;8.18;7.38;;;6.70;99.90;;;;;;5057863;28;20206;-79
2021/01/31 12:23:53;;;;;;;7.55;6.85;;;7.30;99.90;;;;;;5025763;28;20230;-77
2021/01/31 12:26:20;;;;;;;7.72;7.00;;;7.80;99.90;;;;;;5030040;28;20213;-79
2021/01/31 12:28:48;;;;;;;8.73;7.47;;;7.80;99.90;;;;;;5048242;28;20201;-78
2021/01/31 12:31:14;;;;;;;8.73;7.93;;;7.60;99.90;;;;;;5053745;28;20322;-78
2021/01/31 12:33:41;;;;;;;8.27;7.57;;;7.60;99.90;;;;;;5053413;28;20243;-80
2021/01/31 12:36:09;;;;;;;7.40;6.70;;;7.30;99.90;;;;;;5053393;28;20667;-77
2021/01/31 12:38:35;;;;;;;8.77;7.87;;;7.10;99.90;;;;;;5044290;28;20270;-76
2021/01/31 12:41:03;;;;;;;7.03;6.43;;;7.50;99.90;;;;;;5054170;28;20653;-76
2021/01/31 12:43:29;;;;;;;8.25;7.50;;;7.70;99.90;;;;;;5053684;28;20228;-77
2021/01/31 12:45:57;;;;;;;8.63;7.80;;;7.70;99.90;;;;;;5052273;28;20225;-78
2021/01/31 12:48:27;;;;;;;7.80;7.13;;;7.50;99.90;;;;;;5036552;28;20207;-75
2021/01/31 12:50:54;;;;;;;8.35;7.47;;;7.00;99.90;;;;;;5037553;28;20548;-77
2021/01/31 12:53:21;;;;;;;9.47;8.47;;;6.40;99.90;;;;;;5034296;28;20232;-78
2021/01/31 12:55:48;;;;;;;9.88;8.93;;;6.20;99.90;;;;;;5037255;28;20192;-77
2021/01/31 12:58:15;;;;;;;10.00;8.85;;;6.10;99.90;;;;;;5038459;28;20213;-77
2021/01/31 13:00:42;;;;;;;10.33;9.33;;;6.00;99.90;;;;;;5039406;28;20258;-78
2021/01/31 13:03:09;;;;;;;11.57;10.38;;;6.10;99.90;;;;;;5051384;28;20197;-78